createdAt,value
2022-11-04T00:00:14.517Z,84.57
2022-11-04T00:02:18.317Z,85.16
2022-11-04T00:04:23.239Z,85.49
2022-11-04T00:06:26.762Z,85.28
2022-11-04T00:08:29.064Z,84.69
2022-11-04T00:10:46.298Z,84.98
2022-11-04T00:12:53.993Z,84.64
2022-11-04T00:15:17.417Z,84.92
2022-11-04T00:17:20.215Z,84.70
2022-11-04T00:19:24.309Z,85.03
2022-11-04T00:21:45.486Z,85.06
2022-11-04T00:24:02.958Z,84.52
2022-11-04T00:26:23.966Z,84.43
2022-11-04T00:28:47.064Z,84.61
2022-11-04T00:30:54.377Z,84.90
2022-11-04T00:33:29.874Z,84.63
2022-11-04T00:35:33.193Z,84.80
2022-11-04T00:37:38.093Z,84.32
2022-11-04T00:39:41.409Z,84.16
2022-11-04T00:41:44.784Z,84.54
2022-11-04T00:43:49.453Z,84.01
2022-11-04T00:45:52.731Z,84.50
2022-11-04T00:47:56.145Z,84.70
2022-11-04T00:49:59.874Z,84.98
2022-11-04T00:52:03.210Z,84.79
2022-11-04T00:54:07.118Z,84.72
2022-11-04T00:56:10.418Z,84.97
2022-11-04T00:58:13.730Z,85.13
2022-11-04T01:00:20.035Z,85.29
2022-11-04T01:02:23.482Z,85.31
2022-11-04T01:04:27.126Z,85.11
2022-11-04T01:06:30.493Z,85.06
2022-11-04T01:08:34.542Z,84.99
2022-11-04T01:10:44.526Z,85.59
2022-11-04T01:12:47.875Z,85.57
2022-11-04T01:14:51.212Z,85.39
2022-11-04T01:16:56.004Z,85.66
2022-11-04T01:18:59.384Z,85.35
2022-11-04T01:21:03.433Z,85.38
2022-11-04T01:23:06.830Z,85.67
2022-11-04T01:25:11.124Z,86.39
2022-11-04T01:27:14.416Z,86.20
2022-11-04T01:29:17.725Z,86.17
2022-11-04T01:31:23.429Z,85.89
2022-11-04T01:33:28.118Z,85.81
2022-11-04T01:35:32.173Z,86.03
2022-11-04T01:37:36.293Z,86.08
2022-11-04T01:39:39.682Z,85.90
2022-11-04T01:41:43.067Z,85.80
2022-11-04T01:43:50.969Z,86.13
2022-11-04T01:45:58.233Z,85.73
2022-11-04T01:48:06.585Z,85.85
2022-11-04T01:50:15.689Z,85.56
2022-11-04T01:52:25.291Z,85.46
2022-11-04T01:54:29.908Z,85.46
2022-11-04T01:56:34.980Z,85.41
2022-11-04T01:58:41.183Z,85.15
2022-11-04T02:00:45.617Z,85.18
2022-11-04T02:02:55.819Z,85.40
2022-11-04T02:04:59.202Z,84.83
2022-11-04T02:07:07.061Z,84.50
2022-11-04T02:11:32.778Z,84.94
2022-11-04T02:13:37.793Z,84.18
2022-11-04T02:15:46.729Z,84.14
2022-11-04T02:18:08.094Z,84.54
2022-11-04T02:20:33.768Z,84.65
2022-11-04T02:23:19.543Z,84.74
2022-11-04T02:25:54.659Z,84.47
2022-11-04T02:28:18.865Z,84.27
2022-11-04T02:30:24.017Z,84.84
2022-11-04T02:32:40.817Z,84.93
2022-11-04T02:34:53.718Z,84.36
2022-11-04T02:37:07.963Z,84.10
2022-11-04T02:39:24.136Z,83.77
2022-11-04T02:41:39.281Z,83.99
2022-11-04T02:43:56.224Z,83.71
2022-11-04T02:46:06.197Z,84.47
2022-11-04T02:48:18.184Z,83.81
2022-11-04T02:50:26.630Z,83.64
2022-11-04T02:52:37.621Z,83.86
2022-11-04T02:54:47.592Z,83.86
2022-11-04T02:56:53.462Z,84.37
2022-11-04T02:59:02.006Z,84.22
2022-11-04T03:01:08.793Z,84.56
2022-11-04T03:03:16.009Z,84.11
2022-11-04T03:05:23.590Z,84.01
2022-11-04T03:07:32.382Z,83.08
2022-11-04T03:09:39.452Z,83.50
2022-11-04T03:11:46.714Z,83.35
2022-11-04T03:13:54.729Z,83.12
2022-11-04T03:16:02.842Z,82.83
2022-11-04T03:18:16.882Z,82.73
2022-11-04T03:20:24.467Z,83.51
2022-11-04T03:22:30.576Z,83.20
2022-11-04T03:24:34.060Z,82.93
2022-11-04T03:26:42.510Z,82.82
2022-11-04T03:28:52.100Z,82.10
2022-11-04T03:31:00.983Z,82.09
2022-11-04T03:33:13.187Z,81.91
2022-11-04T03:35:18.271Z,82.29
2022-11-04T03:37:21.632Z,81.47
2022-11-04T03:39:25.516Z,81.73
2022-11-04T03:41:35.335Z,81.48
2022-11-04T03:43:40.803Z,81.24
2022-11-04T03:45:44.909Z,81.75
2022-11-04T03:47:48.645Z,81.31
2022-11-04T03:49:57.003Z,81.67
2022-11-04T03:52:00.485Z,81.17
2022-11-04T03:54:04.163Z,80.92
2022-11-04T03:56:28.520Z,80.73
2022-11-04T03:58:44.262Z,80.58
2022-11-04T04:00:52.927Z,81.41
2022-11-04T04:03:08.035Z,81.23
2022-11-04T04:05:20.714Z,81.68
2022-11-04T04:07:31.267Z,81.36
2022-11-04T04:09:40.798Z,81.28
2022-11-04T04:11:47.709Z,80.68
2022-11-04T04:13:56.789Z,81.23
2022-11-04T04:16:03.954Z,81.44
2022-11-04T04:18:12.441Z,81.77
2022-11-04T04:20:20.670Z,81.41
2022-11-04T04:22:28.232Z,81.45
2022-11-04T04:24:53.836Z,80.81
2022-11-04T04:27:16.829Z,80.79
2022-11-04T04:29:21.220Z,81.15
2022-11-04T04:31:45.755Z,80.69
2022-11-04T04:33:49.161Z,80.95
2022-11-04T04:35:57.521Z,81.60
2022-11-04T04:38:19.158Z,80.89
2022-11-04T04:40:47.158Z,80.95
2022-11-04T04:43:11.246Z,80.69
2022-11-04T04:45:22.910Z,81.44
2022-11-04T04:47:30.240Z,81.64
2022-11-04T04:49:35.962Z,81.52
2022-11-04T04:51:44.241Z,81.41
2022-11-04T04:53:47.590Z,81.83
2022-11-04T04:55:50.962Z,81.90
2022-11-04T04:57:54.322Z,82.07
2022-11-04T04:59:57.932Z,81.85
2022-11-04T05:02:01.674Z,82.06
2022-11-04T05:04:05.284Z,81.75
2022-11-04T05:06:09.723Z,81.94
2022-11-04T05:08:14.459Z,81.58
2022-11-04T05:10:19.162Z,81.61
2022-11-04T05:12:22.626Z,81.00
2022-11-04T05:14:25.025Z,81.20
2022-11-04T05:16:28.745Z,81.53
2022-11-04T05:18:32.125Z,81.81
2022-11-04T05:20:38.413Z,81.34
2022-11-04T05:22:41.754Z,81.69
2022-11-04T05:24:46.423Z,81.73
2022-11-04T05:26:49.770Z,82.19
2022-11-04T05:28:53.128Z,82.16
2022-11-04T05:30:56.822Z,82.61
2022-11-04T05:33:03.657Z,82.27
2022-11-04T05:35:09.007Z,82.68
2022-11-04T05:37:12.369Z,83.27
2022-11-04T05:39:15.750Z,83.20
2022-11-04T05:41:25.867Z,82.73
2022-11-04T05:43:29.363Z,83.11
2022-11-04T05:45:32.818Z,83.34
2022-11-04T05:47:36.343Z,83.28
2022-11-04T05:49:39.740Z,84.26
2022-11-04T05:51:43.370Z,83.86
2022-11-04T05:53:46.755Z,84.09
2022-11-04T05:55:50.099Z,84.05
2022-11-04T05:57:55.068Z,83.94
2022-11-04T05:59:58.395Z,83.90
2022-11-04T06:02:01.912Z,84.11
2022-11-04T06:04:07.017Z,84.30
2022-11-04T06:06:10.353Z,83.89
2022-11-04T06:08:13.758Z,84.50
2022-11-04T06:10:17.271Z,84.10
2022-11-04T06:12:20.815Z,84.03
2022-11-04T06:14:25.511Z,84.47
2022-11-04T06:16:28.968Z,84.39
2022-11-04T06:18:32.267Z,83.75
2022-11-04T06:20:35.661Z,84.29
2022-11-04T06:22:39.059Z,84.30
2022-11-04T06:24:42.725Z,84.22
2022-11-04T06:26:46.085Z,84.61
2022-11-04T06:28:49.433Z,84.92
2022-11-04T06:30:54.196Z,84.40
2022-11-04T06:32:57.582Z,84.79
2022-11-04T06:35:01.698Z,85.36
2022-11-04T06:37:05.279Z,84.95
2022-11-04T06:39:08.756Z,84.27
2022-11-04T06:41:14.518Z,84.29
2022-11-04T06:43:17.894Z,84.48
2022-11-04T06:45:21.628Z,84.67
2022-11-04T06:47:26.488Z,84.65
2022-11-04T06:49:29.815Z,84.49
2022-11-04T06:51:34.853Z,84.84
2022-11-04T06:53:38.207Z,84.57
2022-11-04T06:55:41.866Z,85.00
2022-11-04T06:57:45.285Z,85.79
2022-11-04T06:59:48.640Z,84.96
2022-11-04T07:01:52.638Z,85.35
2022-11-04T07:03:58.829Z,86.04
2022-11-04T07:06:07.180Z,85.89
2022-11-04T07:08:10.938Z,86.63
2022-11-04T07:10:14.639Z,91.61
2022-11-04T07:12:17.995Z,88.92
2022-11-04T07:14:21.331Z,86.37
2022-11-04T07:16:24.761Z,85.20
2022-11-04T07:18:28.359Z,85.39
2022-11-04T07:20:33.556Z,84.85
2022-11-04T07:22:37.087Z,86.00
2022-11-04T07:24:40.388Z,86.15
2022-11-04T07:26:43.825Z,86.60
2022-11-04T07:28:47.221Z,86.79
2022-11-04T07:30:50.640Z,87.29
2022-11-04T07:32:54.332Z,87.21
2022-11-04T07:34:57.738Z,87.29
2022-11-04T07:37:02.394Z,86.86
2022-11-04T07:39:07.040Z,87.49
2022-11-04T07:41:11.102Z,87.37
2022-11-04T07:43:14.772Z,87.52
2022-11-04T07:45:18.289Z,87.43
2022-11-04T07:47:22.085Z,87.52
2022-11-04T07:49:26.341Z,87.53
2022-11-04T07:51:32.194Z,87.79
2022-11-04T07:53:36.873Z,88.12
2022-11-04T07:55:43.408Z,88.67
2022-11-04T07:57:47.585Z,88.24
2022-11-04T07:59:50.892Z,88.66
2022-11-04T08:01:54.349Z,89.13
2022-11-04T08:03:57.808Z,89.52
2022-11-04T08:06:03.364Z,89.88
2022-11-04T08:08:06.710Z,90.18
2022-11-04T08:10:11.720Z,90.45
2022-11-04T08:12:15.146Z,90.75
2022-11-04T08:14:18.495Z,90.58
2022-11-04T08:16:23.403Z,91.05
2022-11-04T08:18:26.797Z,90.96
2022-11-04T08:20:30.176Z,91.47
2022-11-04T08:22:35.365Z,91.50
2022-11-04T08:24:38.698Z,91.57
2022-11-04T08:26:43.493Z,91.65
2022-11-04T08:28:47.661Z,91.76
2022-11-04T08:30:55.147Z,92.42
2022-11-04T08:32:59.544Z,92.02
2022-11-04T08:35:03.692Z,91.65
2022-11-04T08:37:07.021Z,91.75
2022-11-04T08:39:11.520Z,91.54
2022-11-04T08:41:17.653Z,90.91
2022-11-04T08:43:22.389Z,91.11
2022-11-04T08:45:29.992Z,91.75
2022-11-04T08:47:37.296Z,91.11
2022-11-04T08:49:41.948Z,90.39
2022-11-04T08:51:47.063Z,90.71
2022-11-04T08:53:50.724Z,91.24
2022-11-04T08:55:54.801Z,90.75
2022-11-04T08:57:58.452Z,90.49
2022-11-04T09:00:03.821Z,90.00
2022-11-04T09:02:08.028Z,89.00
2022-11-04T09:04:12.833Z,89.21
2022-11-04T09:06:19.508Z,89.75
2022-11-04T09:08:22.862Z,89.97
2022-11-04T09:10:26.351Z,89.42
2022-11-04T09:12:29.766Z,88.64
2022-11-04T09:14:33.070Z,88.81
2022-11-04T09:16:38.833Z,87.87
2022-11-04T09:18:42.877Z,88.13
2022-11-04T09:20:46.246Z,88.54
2022-11-04T09:22:50.954Z,88.17
2022-11-04T09:24:54.374Z,88.19
2022-11-04T09:26:57.676Z,88.58
2022-11-04T09:29:01.450Z,88.93
2022-11-04T09:31:11.843Z,88.48
2022-11-04T09:33:16.622Z,88.70
2022-11-04T09:35:20.034Z,88.75
2022-11-04T09:37:23.327Z,89.39
2022-11-04T09:39:27.049Z,89.12
2022-11-04T09:41:50.604Z,88.15
2022-11-04T09:44:02.610Z,86.75
2022-11-04T09:46:06.394Z,86.09
2022-11-04T09:48:15.212Z,85.50
2022-11-04T09:50:25.359Z,86.45
2022-11-04T09:52:31.897Z,85.97
2022-11-04T09:54:47.051Z,82.44
2022-11-04T09:56:53.076Z,82.95
2022-11-04T09:58:56.929Z,82.73
2022-11-04T10:01:06.912Z,81.21
2022-11-04T10:03:32.922Z,80.09
2022-11-04T10:05:54.130Z,79.90
2022-11-04T10:08:22.125Z,79.84
2022-11-04T10:10:34.926Z,80.37
2022-11-04T10:13:05.738Z,80.50
2022-11-04T10:15:21.566Z,80.51
2022-11-04T10:17:48.603Z,80.51
2022-11-04T10:20:04.524Z,80.59
2022-11-04T10:22:17.158Z,79.64
2022-11-04T10:24:31.790Z,79.32
2022-11-04T10:26:42.814Z,78.60
2022-11-04T10:28:52.919Z,76.58
2022-11-04T10:30:56.365Z,76.35
2022-11-04T10:33:06.090Z,74.69
2022-11-04T10:35:22.923Z,75.73
2022-11-04T10:37:28.197Z,75.19
2022-11-04T10:39:36.412Z,75.71
2022-11-04T10:41:41.213Z,74.39
2022-11-04T10:43:44.804Z,74.39
2022-11-04T10:46:00.446Z,73.04
2022-11-04T10:48:10.038Z,72.77
2022-11-04T10:50:40.271Z,70.08
2022-11-04T10:52:45.087Z,69.97
2022-11-04T10:54:50.051Z,69.78
2022-11-04T10:56:54.980Z,71.15
2022-11-04T10:59:01.744Z,71.58
2022-11-04T11:01:25.381Z,72.62
2022-11-04T11:03:32.416Z,72.86
2022-11-04T11:05:36.419Z,73.05
2022-11-04T11:07:40.233Z,72.46
2022-11-04T11:09:54.392Z,73.00
2022-11-04T11:12:01.102Z,73.11
2022-11-04T11:14:04.593Z,73.67
2022-11-04T11:16:13.462Z,72.44
2022-11-04T11:18:18.281Z,70.19
2022-11-04T11:20:24.295Z,70.61
2022-11-04T11:22:32.408Z,70.87
2022-11-04T11:24:35.912Z,70.99
2022-11-04T11:26:41.829Z,70.93
2022-11-04T11:28:57.487Z,70.99
2022-11-04T11:31:04.284Z,71.92
2022-11-04T11:33:17.896Z,72.04
2022-11-04T11:35:24.521Z,70.83
2022-11-04T11:37:28.296Z,71.30
2022-11-04T11:39:33.526Z,70.96
2022-11-04T11:41:53.661Z,70.96
2022-11-04T11:43:59.003Z,70.95
2022-11-04T11:46:02.608Z,71.07
2022-11-04T11:48:30.348Z,71.13
2022-11-04T11:50:35.746Z,71.49
2022-11-04T11:52:40.774Z,71.09
2022-11-04T11:54:46.233Z,71.22
2022-11-04T12:01:51.773Z,71.30
2022-11-04T12:09:31.441Z,72.05
2022-11-04T12:11:50.816Z,72.58
2022-11-04T12:13:58.488Z,72.60
2022-11-04T12:16:25.337Z,72.83
2022-11-04T12:18:42.553Z,73.46
2022-11-04T12:20:53.152Z,73.16
2022-11-04T12:23:02.119Z,73.30
2022-11-04T12:25:14.819Z,73.17
2022-11-04T12:27:27.072Z,73.03
2022-11-04T12:29:49.829Z,73.19
2022-11-04T12:32:04.412Z,72.63
2022-11-04T12:34:17.539Z,72.18
2022-11-04T12:36:37.480Z,72.59
2022-11-04T12:38:56.709Z,72.52
2022-11-04T12:43:38.902Z,71.81
2022-11-04T12:46:01.010Z,71.81
2022-11-04T12:48:10.853Z,71.79
2022-11-04T12:50:33.953Z,71.92
2022-11-04T12:53:19.541Z,72.02
2022-11-04T12:55:34.454Z,72.63
2022-11-04T12:57:47.257Z,73.75
2022-11-04T13:00:06.291Z,74.39
2022-11-04T13:02:21.710Z,74.29
2022-11-04T13:04:31.920Z,75.12
2022-11-04T13:06:42.055Z,76.12
2022-11-04T13:08:50.668Z,75.93
2022-11-04T13:10:58.375Z,76.00
2022-11-04T13:13:03.786Z,76.28
2022-11-04T13:15:16.375Z,76.37
2022-11-04T13:17:25.901Z,75.57
2022-11-04T13:19:35.665Z,75.53
2022-11-04T13:21:39.709Z,75.10
2022-11-04T13:23:51.570Z,74.44
2022-11-04T13:25:55.441Z,74.52
2022-11-04T13:28:00.388Z,74.43
2022-11-04T13:30:09.775Z,74.63
2022-11-04T13:32:19.761Z,73.96
2022-11-04T13:34:33.294Z,74.06
2022-11-04T13:36:42.934Z,73.46
2022-11-04T13:38:52.911Z,73.64
2022-11-04T13:41:16.123Z,73.83
2022-11-04T13:43:44.572Z,74.39
2022-11-04T13:45:51.237Z,74.56
2022-11-04T13:47:58.896Z,74.70
2022-11-04T13:50:28.027Z,74.60
2022-11-04T13:52:34.345Z,74.77
2022-11-04T13:54:41.846Z,75.17
2022-11-04T13:56:45.342Z,75.53
2022-11-04T13:58:53.499Z,74.56
2022-11-04T14:01:27.525Z,74.77
2022-11-04T14:03:54.839Z,73.90
2022-11-04T14:06:08.354Z,74.37
2022-11-04T14:08:14.483Z,74.12
2022-11-04T14:10:43.729Z,74.61
2022-11-04T14:12:47.189Z,75.24
2022-11-04T14:14:53.310Z,75.44
2022-11-04T14:16:56.690Z,75.66
2022-11-04T14:20:02.082Z,74.98
2022-11-04T14:22:13.585Z,74.98
2022-11-04T14:24:20.412Z,75.25
2022-11-04T14:26:27.493Z,75.11
2022-11-04T14:28:32.892Z,75.27
2022-11-04T14:30:52.049Z,75.06
2022-11-04T14:32:59.659Z,75.15
2022-11-04T14:35:05.367Z,75.43
2022-11-04T14:37:21.185Z,75.97
2022-11-04T14:39:26.707Z,76.30
2022-11-04T14:41:51.341Z,76.25
2022-11-04T14:43:56.413Z,76.40
2022-11-04T14:46:02.480Z,76.30
2022-11-04T14:48:15.931Z,76.09
2022-11-04T14:50:22.255Z,76.43
2022-11-04T14:52:29.819Z,76.77
2022-11-04T14:54:34.978Z,76.89
2022-11-04T14:56:38.405Z,76.83
2022-11-04T14:58:55.654Z,77.14
2022-11-04T15:01:01.856Z,77.29
2022-11-04T15:03:45.671Z,77.68
2022-11-04T15:05:39.746Z,77.94
2022-11-04T15:07:44.554Z,78.04
2022-11-04T15:09:50.317Z,78.00
2022-11-04T15:12:19.857Z,78.02
2022-11-04T15:14:25.794Z,78.24
2022-11-04T15:16:31.651Z,77.92
2022-11-04T15:18:35.017Z,77.67
2022-11-04T15:20:42.392Z,77.74
2022-11-04T15:22:47.204Z,77.71
2022-11-04T15:24:51.616Z,78.02
2022-11-04T15:27:03.783Z,77.86
2022-11-04T15:29:11.287Z,78.26
2022-11-04T15:31:20.490Z,78.27
2022-11-04T15:33:27.338Z,78.51
2022-11-04T15:35:33.108Z,78.10
2022-11-04T15:37:38.239Z,78.20
2022-11-04T15:39:46.064Z,78.37
2022-11-04T15:42:10.096Z,78.15
2022-11-04T15:44:22.072Z,77.75
2022-11-04T15:46:29.354Z,77.77
2022-11-04T15:48:36.535Z,77.80
2022-11-04T15:50:40.526Z,77.52
2022-11-04T15:52:51.597Z,77.46
2022-11-04T15:54:58.680Z,77.51
2022-11-04T15:57:06.693Z,77.48
2022-11-04T15:59:16.084Z,77.20
2022-11-04T16:01:20.914Z,77.78
2022-11-04T16:03:26.843Z,77.85
2022-11-04T16:05:33.154Z,77.52
2022-11-04T16:07:38.800Z,77.83
2022-11-04T16:09:50.121Z,78.24
2022-11-04T16:12:16.310Z,78.32
2022-11-04T16:14:23.862Z,78.53
2022-11-04T16:16:29.052Z,78.45
2022-11-04T16:18:37.493Z,78.51
2022-11-04T16:20:46.844Z,78.87
2022-11-04T16:22:57.278Z,79.03
2022-11-04T16:25:03.653Z,79.03
2022-11-04T16:27:11.996Z,79.31
2022-11-04T16:29:21.060Z,79.64
2022-11-04T16:31:27.602Z,79.79
2022-11-04T16:33:30.949Z,79.91
2022-11-04T16:35:34.377Z,80.04
2022-11-04T16:37:37.902Z,80.25
2022-11-04T16:39:41.842Z,80.13
2022-11-04T16:41:45.425Z,80.74
2022-11-04T16:43:51.147Z,81.25
2022-11-04T16:45:54.593Z,81.55
2022-11-04T16:47:58.925Z,81.68
2022-11-04T16:50:03.169Z,81.49
2022-11-04T16:52:12.701Z,81.62
2022-11-04T16:54:16.043Z,82.00
2022-11-04T16:56:21.746Z,82.25
2022-11-04T16:58:25.129Z,82.97
2022-11-04T17:00:32.828Z,82.80
2022-11-04T17:02:38.403Z,83.07
2022-11-04T17:04:42.457Z,82.88
2022-11-04T17:06:46.265Z,82.98
2022-11-04T17:08:49.712Z,82.79
2022-11-04T17:10:54.216Z,82.95
2022-11-04T17:12:57.622Z,83.07
2022-11-04T17:15:00.986Z,83.17
2022-11-04T17:17:06.624Z,82.95
2022-11-04T17:19:15.184Z,83.31
2022-11-04T17:21:20.743Z,83.29
2022-11-04T17:23:24.689Z,82.64
2022-11-04T17:25:30.181Z,83.11
2022-11-04T17:27:33.471Z,82.74
2022-11-04T17:29:37.478Z,83.13
2022-11-04T17:31:40.850Z,82.91
2022-11-04T17:33:46.138Z,82.94
2022-11-04T17:35:51.406Z,83.31
2022-11-04T17:37:55.786Z,82.74
2022-11-04T17:39:59.320Z,83.23
2022-11-04T17:42:19.518Z,82.99
2022-11-04T17:44:22.880Z,83.27
2022-11-04T17:46:35.473Z,83.30
2022-11-04T17:48:39.012Z,83.48
2022-11-04T17:50:43.713Z,83.16
2022-11-04T17:52:49.152Z,83.65
2022-11-04T17:54:52.926Z,83.72
2022-11-04T17:56:56.750Z,83.54
2022-11-04T17:59:01.240Z,83.23
2022-11-04T18:01:07.562Z,84.38
2022-11-04T18:03:12.277Z,84.78
2022-11-04T18:05:15.994Z,84.92
2022-11-04T18:07:20.712Z,84.86
2022-11-04T18:09:24.021Z,85.18
2022-11-04T18:11:47.684Z,85.08
2022-11-04T18:13:51.065Z,85.49
2022-11-04T18:15:54.548Z,85.42
2022-11-04T18:17:57.871Z,85.37
2022-11-04T18:20:01.275Z,85.56
2022-11-04T18:22:04.709Z,86.00
2022-11-04T18:24:09.795Z,86.23
2022-11-04T18:26:13.458Z,86.00
2022-11-04T18:28:16.799Z,86.27
2022-11-04T18:30:20.316Z,86.48
2022-11-04T18:32:23.677Z,86.44
2022-11-04T18:34:27.029Z,86.17
2022-11-04T18:36:31.639Z,86.18
2022-11-04T18:38:35.022Z,86.58
2022-11-04T18:40:39.798Z,86.79
2022-11-04T18:42:43.223Z,86.90
2022-11-04T18:44:46.593Z,87.32
2022-11-04T18:46:50.790Z,87.35
2022-11-04T18:48:54.618Z,86.88
2022-11-04T18:51:00.405Z,87.55
2022-11-04T18:53:03.825Z,87.79
2022-11-04T18:55:08.861Z,87.89
2022-11-04T18:57:13.636Z,88.00
2022-11-04T18:59:17.260Z,88.13
2022-11-04T19:01:23.114Z,88.19
2022-11-04T19:03:26.569Z,87.87
2022-11-04T19:05:30.018Z,88.22
2022-11-04T19:07:33.382Z,88.15
2022-11-04T19:09:51.995Z,87.75
2022-11-04T19:12:15.374Z,87.90
2022-11-04T19:14:20.285Z,88.68
2022-11-04T19:16:24.516Z,88.02
2022-11-04T19:18:27.906Z,88.34
2022-11-04T19:20:31.269Z,88.10
2022-11-04T19:22:34.627Z,87.83
2022-11-04T19:24:39.285Z,87.84
2022-11-04T19:26:42.641Z,87.95
2022-11-04T19:28:48.774Z,87.91
2022-11-04T19:31:00.009Z,87.50
2022-11-04T19:33:03.502Z,87.20
2022-11-04T19:35:07.371Z,86.98
2022-11-04T19:37:11.634Z,87.52
2022-11-04T19:39:15.034Z,87.40
2022-11-04T19:41:33.662Z,87.54
2022-11-04T19:43:37.071Z,87.93
2022-11-04T19:45:41.780Z,87.89
2022-11-04T19:47:46.649Z,87.94
2022-11-04T19:49:50.206Z,88.50
2022-11-04T19:51:53.568Z,87.97
2022-11-04T19:53:57.539Z,88.01
2022-11-04T19:56:01.109Z,87.96
2022-11-04T19:58:04.869Z,87.76
2022-11-04T20:00:10.221Z,88.35
2022-11-04T20:02:17.147Z,87.81
2022-11-04T20:04:22.204Z,87.76
2022-11-04T20:06:25.596Z,88.08
2022-11-04T20:08:29.242Z,88.18
2022-11-04T20:10:32.532Z,88.05
2022-11-04T20:12:53.789Z,87.89
2022-11-04T20:14:57.579Z,88.18
2022-11-04T20:17:01.022Z,88.34
2022-11-04T20:19:04.820Z,88.20
2022-11-04T20:21:10.362Z,88.42
2022-11-04T20:23:13.937Z,87.85
2022-11-04T20:25:17.327Z,88.02
2022-11-04T20:27:20.675Z,88.39
2022-11-04T20:29:24.058Z,88.40
2022-11-04T20:31:29.280Z,88.34
2022-11-04T20:33:32.734Z,88.56
2022-11-04T20:35:36.240Z,88.68
2022-11-04T20:37:41.537Z,88.45
2022-11-04T20:39:45.483Z,88.33
2022-11-04T20:41:48.974Z,88.49
2022-11-04T20:43:52.675Z,88.33
2022-11-04T20:45:56.958Z,88.35
2022-11-04T20:48:00.597Z,88.32
2022-11-04T20:50:04.195Z,88.95
2022-11-04T20:52:07.530Z,88.23
2022-11-04T20:54:13.408Z,88.59
2022-11-04T20:56:20.626Z,88.82
2022-11-04T20:58:23.939Z,88.33
2022-11-04T21:00:27.598Z,88.26
2022-11-04T21:02:31.051Z,88.68
2022-11-04T21:04:36.384Z,88.38
2022-11-04T21:06:40.581Z,88.77
2022-11-04T21:08:43.938Z,89.15
2022-11-04T21:10:51.519Z,89.28
2022-11-04T21:12:54.821Z,89.48
2022-11-04T21:14:58.138Z,89.59
2022-11-04T21:17:01.666Z,89.55
2022-11-04T21:19:06.665Z,89.16
2022-11-04T21:21:12.312Z,89.74
2022-11-04T21:23:17.795Z,89.57
2022-11-04T21:25:22.049Z,89.94
2022-11-04T21:27:26.726Z,89.80
2022-11-04T21:29:30.095Z,89.94
2022-11-04T21:31:34.846Z,89.65
2022-11-04T21:33:38.894Z,89.66
2022-11-04T21:35:43.994Z,90.08
2022-11-04T21:37:47.382Z,90.15
2022-11-04T21:39:50.670Z,90.21
2022-11-04T21:41:54.102Z,90.61
2022-11-04T21:44:00.690Z,90.05
2022-11-04T21:46:05.041Z,90.17
2022-11-04T21:48:08.839Z,90.67
2022-11-04T21:50:17.669Z,90.67
2022-11-04T21:52:21.439Z,90.33
2022-11-04T21:54:24.729Z,90.88
2022-11-04T21:56:32.826Z,90.86
2022-11-04T21:58:37.285Z,90.93
2022-11-04T22:00:42.011Z,91.17
2022-11-04T22:02:47.382Z,91.62
2022-11-04T22:04:50.872Z,91.97
2022-11-04T22:06:54.227Z,91.79
2022-11-04T22:08:57.610Z,91.74
2022-11-04T22:11:08.178Z,91.92
2022-11-04T22:13:11.791Z,91.53
2022-11-04T22:15:35.561Z,91.55
2022-11-04T22:17:40.320Z,90.77
2022-11-04T22:19:43.637Z,91.36
2022-11-04T22:21:47.453Z,91.21
2022-11-04T22:23:51.407Z,91.13
2022-11-04T22:26:00.429Z,91.20
2022-11-04T22:28:05.056Z,91.62
2022-11-04T22:30:10.149Z,91.66
2022-11-04T22:32:14.359Z,91.31
2022-11-04T22:34:19.065Z,91.22
2022-11-04T22:36:23.269Z,90.91
2022-11-04T22:38:26.627Z,90.74
2022-11-04T22:40:29.966Z,91.08
2022-11-04T22:42:33.277Z,90.88
2022-11-04T22:44:36.610Z,90.75
2022-11-04T22:46:40.332Z,91.03
2022-11-04T22:48:44.097Z,90.78
2022-11-04T22:50:55.552Z,91.22
2022-11-04T22:52:58.917Z,90.31
2022-11-04T22:55:02.281Z,90.48
2022-11-04T22:57:05.747Z,90.41
2022-11-04T22:59:09.132Z,90.47
2022-11-04T23:01:15.284Z,90.64
2022-11-04T23:03:18.834Z,90.47
2022-11-04T23:05:22.406Z,90.15
2022-11-04T23:07:27.249Z,89.76
2022-11-04T23:09:31.775Z,90.22
2022-11-04T23:11:52.744Z,90.16
2022-11-04T23:14:20.442Z,89.20
2022-11-04T23:16:42.221Z,90.06
2022-11-04T23:18:46.175Z,90.01
2022-11-04T23:21:09.816Z,90.14
2022-11-04T23:23:32.048Z,90.43
2022-11-04T23:25:34.435Z,90.31
2022-11-04T23:27:57.877Z,90.62
2022-11-04T23:30:19.220Z,90.11
2022-11-04T23:32:27.127Z,90.11
2022-11-04T23:34:48.591Z,89.65
2022-11-04T23:37:09.300Z,90.35
2022-11-04T23:39:13.990Z,89.78
2022-11-04T23:41:34.999Z,89.92
2022-11-04T23:43:38.304Z,89.95
2022-11-04T23:45:59.264Z,90.18
2022-11-04T23:48:19.944Z,89.62
2022-11-04T23:50:37.845Z,89.68
2022-11-04T23:52:58.855Z,89.59
2022-11-04T23:55:21.454Z,90.22
2022-11-04T23:57:42.463Z,89.80
